Terminal Aerodrome Forecast
Issued by NWS Sterling, VA

Current Version | Previous Version | Graphics & Text | Print | Product List | Glossary On
Versions: 1 2 3 4 5 6 7 8 9 10 11 12 13 14 15 16 17 18 19 20 21 22 23 24 25
874
FTUS41 KLWX 161302 AAA
TAFDCA
TAF AMD
KDCA 161302Z 1613/1712 00000KT 3SM BR SCT004
     FM161400 35004KT P6SM SCT050 SCT250
     FM162000 32004KT P6SM BKN100
     FM170800 00000KT P6SM SCT020=

USA.gov is the U.S. government's official web portal to all federal, state and local government web resources and services.